createdAt,value
2018-04-17T00:00:09.187Z,3.50
2018-04-17T00:02:36.654Z,3.73
2018-04-17T00:05:04.110Z,3.60
2018-04-17T00:07:31.655Z,3.47
2018-04-17T00:09:59.086Z,3.67
2018-04-17T00:12:26.583Z,3.70
2018-04-17T00:14:54.015Z,4.20
2018-04-17T00:17:21.451Z,3.93
2018-04-17T00:19:48.940Z,4.77
2018-04-17T00:22:16.411Z,4.97
2018-04-17T00:24:43.830Z,4.57
2018-04-17T00:27:11.310Z,5.87
2018-04-17T00:29:39.079Z,4.70
2018-04-17T00:32:06.534Z,4.70
2018-04-17T00:34:33.986Z,4.97
2018-04-17T00:37:01.434Z,4.90
2018-04-17T00:39:28.870Z,5.37
2018-04-17T00:41:56.363Z,5.00
2018-04-17T00:44:23.923Z,4.90
2018-04-17T00:46:51.372Z,6.23
2018-04-17T00:49:18.836Z,5.07
2018-04-17T00:51:46.287Z,4.80
2018-04-17T00:54:13.718Z,5.23
2018-04-17T00:56:41.161Z,5.93
2018-04-17T00:59:08.666Z,6.07
2018-04-17T01:01:36.114Z,5.43
2018-04-17T01:04:03.553Z,6.03
2018-04-17T01:06:30.982Z,5.70
2018-04-17T01:08:59.313Z,5.73
2018-04-17T01:11:26.816Z,5.53
2018-04-17T01:13:55.018Z,6.67
2018-04-17T01:16:22.461Z,5.53
2018-04-17T01:18:49.902Z,6.10
2018-04-17T01:21:18.130Z,6.50
2018-04-17T01:23:45.592Z,6.17
2018-04-17T01:26:13.084Z,6.50
2018-04-17T01:28:40.486Z,7.37
2018-04-17T01:31:07.938Z,6.47
2018-04-17T01:33:35.415Z,6.50
2018-04-17T01:36:02.857Z,6.70
2018-04-17T01:38:30.430Z,7.13
2018-04-17T01:40:57.887Z,6.60
2018-04-17T01:43:25.467Z,6.50
2018-04-17T01:45:52.891Z,6.30
2018-04-17T01:48:20.319Z,7.27
2018-04-17T01:50:47.762Z,6.77
2018-04-17T01:53:16.099Z,5.10
2018-04-17T01:55:43.554Z,5.80
2018-04-17T01:58:11.018Z,6.90
2018-04-17T02:00:38.565Z,5.87
2018-04-17T02:03:06.030Z,6.50
2018-04-17T02:05:33.485Z,6.03
2018-04-17T02:08:01.042Z,6.00
2018-04-17T02:10:28.910Z,6.13
2018-04-17T02:12:56.374Z,5.77
2018-04-17T02:15:23.926Z,6.63
2018-04-17T02:17:51.490Z,5.30
2018-04-17T02:20:18.923Z,5.50
2018-04-17T02:22:46.397Z,5.90
2018-04-17T02:25:13.867Z,6.00
2018-04-17T02:27:41.327Z,6.00
2018-04-17T02:30:08.878Z,5.97
2018-04-17T02:32:36.322Z,6.03
2018-04-17T02:35:03.788Z,5.10
2018-04-17T02:37:31.245Z,5.80
2018-04-17T02:39:58.703Z,5.33
2018-04-17T02:42:26.159Z,5.50
2018-04-17T02:44:53.619Z,5.00
2018-04-17T02:47:21.062Z,5.27
2018-04-17T02:49:48.722Z,5.37
2018-04-17T02:52:16.160Z,5.67
2018-04-17T02:54:43.675Z,6.43
2018-04-17T02:57:11.050Z,5.00
2018-04-17T02:59:39.284Z,5.73
2018-04-17T03:02:06.720Z,5.00
2018-04-17T03:04:34.191Z,5.70
2018-04-17T03:07:01.751Z,6.10
2018-04-17T03:09:29.306Z,6.27
2018-04-17T03:11:56.762Z,5.13
2018-04-17T03:14:24.534Z,5.30
2018-04-17T03:16:52.085Z,5.20
2018-04-17T03:19:19.539Z,4.70
2018-04-17T03:21:46.989Z,5.23
2018-04-17T03:24:14.450Z,4.80
2018-04-17T03:26:41.910Z,4.57
2018-04-17T03:29:09.371Z,4.30
2018-04-17T03:31:36.823Z,4.27
2018-04-17T03:34:04.271Z,4.10
2018-04-17T03:36:31.739Z,4.93
2018-04-17T03:38:59.302Z,4.77
2018-04-17T03:41:26.801Z,4.90
2018-04-17T03:43:54.986Z,4.70
2018-04-17T03:46:22.491Z,5.47
2018-04-17T03:48:49.952Z,5.63
2018-04-17T03:51:17.397Z,5.13
2018-04-17T03:53:44.855Z,4.80
2018-04-17T03:56:12.335Z,5.33
2018-04-17T03:58:39.810Z,6.00
2018-04-17T04:01:08.014Z,5.00
2018-04-17T04:03:35.454Z,5.30
2018-04-17T04:06:02.959Z,5.70
2018-04-17T04:08:30.406Z,5.20
2018-04-17T04:10:57.851Z,4.70
2018-04-17T04:13:25.330Z,5.30
2018-04-17T04:15:52.765Z,5.40
2018-04-17T04:18:32.031Z,5.40
2018-04-17T04:21:11.505Z,5.80
2018-04-17T04:23:51.719Z,4.53
2018-04-17T04:26:31.128Z,5.63
2018-04-17T04:28:58.616Z,5.47
2018-04-17T04:31:26.069Z,5.10
2018-04-17T04:33:53.498Z,5.30
2018-04-17T04:36:20.939Z,5.20
2018-04-17T04:38:48.438Z,4.93
2018-04-17T04:41:15.870Z,5.77
2018-04-17T04:43:43.318Z,4.80
2018-04-17T04:46:11.218Z,5.03
2018-04-17T04:48:38.662Z,5.70
2018-04-17T04:51:06.110Z,5.30
2018-04-17T04:53:33.830Z,5.70
2018-04-17T04:56:02.037Z,4.90
2018-04-17T04:58:29.787Z,5.33
2018-04-17T05:00:57.986Z,4.60
2018-04-17T05:03:25.474Z,4.67
2018-04-17T05:05:52.943Z,4.37
2018-04-17T05:08:20.481Z,4.63
2018-04-17T05:10:48.038Z,4.97
2018-04-17T05:13:15.482Z,4.37
2018-04-17T05:15:42.949Z,4.63
2018-04-17T05:18:11.033Z,4.33
2018-04-17T05:20:38.488Z,4.43
2018-04-17T05:23:06.046Z,5.17
2018-04-17T05:25:33.503Z,5.00
2018-04-17T05:28:00.961Z,5.40
2018-04-17T05:30:28.418Z,6.90
2018-04-17T05:32:55.858Z,5.43
2018-04-17T05:35:23.330Z,4.97
2018-04-17T05:37:50.787Z,5.87
2018-04-17T05:40:18.242Z,5.10
2018-04-17T05:42:45.693Z,6.10
2018-04-17T05:45:13.190Z,5.23
2018-04-17T05:47:41.394Z,6.07
2018-04-17T05:50:08.884Z,5.90
2018-04-17T05:52:36.350Z,6.10
2018-04-17T05:55:03.911Z,6.93
2018-04-17T05:57:31.458Z,6.10
2018-04-17T05:59:58.939Z,7.20
2018-04-17T06:02:26.386Z,7.77
2018-04-17T06:04:53.934Z,6.80
2018-04-17T06:07:21.391Z,7.70
2018-04-17T06:09:48.858Z,6.80
2018-04-17T06:12:17.308Z,7.40
2018-04-17T06:14:45.403Z,5.70
2018-04-17T06:17:12.970Z,6.03
2018-04-17T06:19:40.518Z,6.87
2018-04-17T06:22:07.951Z,6.97
2018-04-17T06:24:35.390Z,7.67
2018-04-17T06:27:02.885Z,7.20
2018-04-17T06:29:30.355Z,7.13
2018-04-17T06:31:57.814Z,6.90
2018-04-17T06:34:25.258Z,6.80
2018-04-17T06:36:53.127Z,7.20
2018-04-17T06:39:20.587Z,6.80
2018-04-17T06:41:48.299Z,6.30
2018-04-17T06:44:15.697Z,7.33
2018-04-17T06:46:43.166Z,6.20
2018-04-17T06:49:10.622Z,6.80
2018-04-17T06:51:38.059Z,7.33
2018-04-17T06:54:05.500Z,7.70
2018-04-17T06:56:32.934Z,6.87
2018-04-17T06:59:01.159Z,7.07
2018-04-17T07:01:28.592Z,6.17
2018-04-17T07:03:56.069Z,6.80
2018-04-17T07:06:23.511Z,7.50
2018-04-17T07:08:51.002Z,7.90
2018-04-17T07:11:18.463Z,6.80
2018-04-17T07:13:46.002Z,7.67
2018-04-17T07:16:13.447Z,6.73
2018-04-17T07:18:40.913Z,7.90
2018-04-17T07:21:08.353Z,7.33
2018-04-17T07:23:35.803Z,8.10
2018-04-17T07:26:03.242Z,7.87
2018-04-17T07:28:30.682Z,8.20
2018-04-17T07:30:58.931Z,7.57
2018-04-17T07:33:26.475Z,8.67
2018-04-17T07:35:53.924Z,10.17
2018-04-17T07:38:21.392Z,13.90
2018-04-17T07:40:48.833Z,13.80
2018-04-17T07:43:16.307Z,13.47
2018-04-17T07:45:43.773Z,10.30
2018-04-17T07:48:24.198Z,8.27
2018-04-17T07:50:51.679Z,9.33
2018-04-17T07:53:19.113Z,8.70
2018-04-17T07:55:46.638Z,9.20
2018-04-17T07:58:14.098Z,9.00
2018-04-17T08:00:42.301Z,10.10
2018-04-17T08:03:09.751Z,10.77
2018-04-17T08:05:37.242Z,9.50
2018-04-17T08:08:04.690Z,11.00
2018-04-17T08:10:32.154Z,10.83
2018-04-17T08:12:59.598Z,9.23
2018-04-17T08:15:27.065Z,10.37
2018-04-17T08:17:54.628Z,10.53
2018-04-17T08:20:22.086Z,11.00
2018-04-17T08:22:49.531Z,11.30
2018-04-17T08:25:16.978Z,11.97
2018-04-17T08:27:44.412Z,11.80
2018-04-17T08:30:11.862Z,11.53
2018-04-17T08:32:40.066Z,12.20
2018-04-17T08:35:07.509Z,12.77
2018-04-17T08:37:35.074Z,13.43
2018-04-17T08:40:02.559Z,12.50
2018-04-17T08:42:29.998Z,13.10
2018-04-17T08:44:57.478Z,11.50
2018-04-17T08:47:24.930Z,10.87
2018-04-17T08:49:52.495Z,12.50
2018-04-17T08:52:19.934Z,11.27
2018-04-17T08:54:47.377Z,11.50
2018-04-17T08:57:14.863Z,11.97
2018-04-17T08:59:42.318Z,12.77
2018-04-17T09:02:09.884Z,11.97
2018-04-17T09:04:37.326Z,12.10
2018-04-17T09:07:04.772Z,11.27
2018-04-17T09:09:32.222Z,12.43
2018-04-17T09:11:59.733Z,11.90
2018-04-17T09:14:27.162Z,12.23
2018-04-17T09:16:54.619Z,11.50
2018-04-17T09:19:22.174Z,12.60
2018-04-17T09:21:49.618Z,13.50
2018-04-17T09:24:17.085Z,12.50
2018-04-17T09:26:44.654Z,12.17
2018-04-17T09:29:12.110Z,12.03
2018-04-17T09:31:39.579Z,14.10
2018-04-17T09:34:07.032Z,12.80
2018-04-17T09:36:34.481Z,12.47
2018-04-17T09:39:01.943Z,12.00
2018-04-17T09:41:29.498Z,11.97
2018-04-17T09:43:56.957Z,11.07
2018-04-17T09:46:24.512Z,10.83
2018-04-17T09:48:52.573Z,11.87
2018-04-17T09:51:20.038Z,11.90
2018-04-17T09:53:47.482Z,10.97
2018-04-17T09:56:14.927Z,12.07
2018-04-17T09:58:42.377Z,12.27
2018-04-17T10:01:15.631Z,12.20
2018-04-17T10:03:43.078Z,11.33
2018-04-17T10:06:11.282Z,10.60
2018-04-17T10:08:38.786Z,11.70
2018-04-17T10:11:06.229Z,12.30
2018-04-17T10:13:33.711Z,11.60
2018-04-17T10:16:01.150Z,10.40
2018-04-17T10:18:28.612Z,11.20
2018-04-17T10:20:56.053Z,11.67
2018-04-17T10:23:23.495Z,9.97
2018-04-17T10:25:50.990Z,10.67
2018-04-17T10:28:18.648Z,10.00
2018-04-17T10:30:46.098Z,11.13
2018-04-17T10:33:13.540Z,9.00
2018-04-17T10:35:41.739Z,12.60
2018-04-17T10:38:09.198Z,10.10
2018-04-17T10:40:36.647Z,7.40
2018-04-17T10:43:04.090Z,7.57
2018-04-17T10:45:31.540Z,8.37
2018-04-17T10:47:59.022Z,7.17
2018-04-17T10:50:26.488Z,9.00
2018-04-17T10:52:53.930Z,11.67
2018-04-17T10:55:21.371Z,8.57
2018-04-17T10:57:48.821Z,10.77
2018-04-17T11:00:16.302Z,7.70
2018-04-17T11:02:43.771Z,5.20
2018-04-17T11:05:11.321Z,3.90
2018-04-17T11:07:38.760Z,4.50
2018-04-17T11:10:06.330Z,4.47
2018-04-17T11:12:33.767Z,4.37
2018-04-17T11:15:01.199Z,4.13
2018-04-17T11:17:29.411Z,4.00
2018-04-17T11:19:56.866Z,3.83
2018-04-17T11:22:24.340Z,4.80
2018-04-17T11:24:51.767Z,4.70
2018-04-17T11:27:19.211Z,4.40
2018-04-17T11:29:46.706Z,4.60
2018-04-17T11:32:14.150Z,4.10
2018-04-17T11:34:41.617Z,4.00
2018-04-17T11:37:09.023Z,3.50
2018-04-17T11:39:37.251Z,3.73
2018-04-17T11:42:04.697Z,3.80
2018-04-17T11:44:32.140Z,3.30
2018-04-17T11:46:59.570Z,2.77
2018-04-17T11:49:27.794Z,3.30
2018-04-17T11:51:55.235Z,3.50
2018-04-17T11:54:22.706Z,2.57
2018-04-17T11:56:50.166Z,2.37
2018-04-17T11:59:17.622Z,2.80
2018-04-17T12:01:45.078Z,2.03
2018-04-17T12:04:12.511Z,2.57
2018-04-17T12:06:39.951Z,1.97
2018-04-17T12:09:07.394Z,1.90
2018-04-17T12:11:35.606Z,2.77
2018-04-17T12:14:03.082Z,2.97
2018-04-17T12:16:30.549Z,2.80
2018-04-17T12:18:58.089Z,2.70
2018-04-17T12:21:25.534Z,2.30
2018-04-17T12:23:52.970Z,2.00
2018-04-17T12:26:20.462Z,2.63
2018-04-17T12:28:47.897Z,2.17
2018-04-17T12:31:15.380Z,1.90
2018-04-17T12:33:42.834Z,1.97
2018-04-17T12:36:10.270Z,2.47
2018-04-17T12:38:37.746Z,3.23
2018-04-17T12:41:05.208Z,1.73
2018-04-17T12:43:32.657Z,1.87
2018-04-17T12:46:00.126Z,2.60
2018-04-17T12:48:27.578Z,2.40
2018-04-17T12:50:55.039Z,2.53
2018-04-17T12:53:22.490Z,2.20
2018-04-17T12:55:49.950Z,2.73
2018-04-17T12:58:17.430Z,2.73
2018-04-17T13:00:44.970Z,4.50
2018-04-17T13:03:12.528Z,3.40
2018-04-17T13:05:40.086Z,2.27
2018-04-17T13:08:07.542Z,3.30
2018-04-17T13:10:35.002Z,3.47
2018-04-17T13:13:02.456Z,2.60
2018-04-17T13:15:29.907Z,2.70
2018-04-17T13:17:57.377Z,2.30
2018-04-17T13:20:24.833Z,3.00
2018-04-17T13:22:52.263Z,2.87
2018-04-17T13:25:19.712Z,3.53
2018-04-17T13:27:47.142Z,3.03
2018-04-17T13:30:16.087Z,3.87
2018-04-17T13:32:43.555Z,3.00
2018-04-17T13:35:10.990Z,3.93
2018-04-17T13:37:38.425Z,3.13
2018-04-17T13:40:05.914Z,3.43
2018-04-17T13:42:33.350Z,3.73
2018-04-17T13:45:00.794Z,3.40
2018-04-17T13:47:28.230Z,2.53
2018-04-17T13:49:56.457Z,3.63
2018-04-17T13:52:24.018Z,2.73
2018-04-17T13:54:52.090Z,3.20
2018-04-17T13:57:19.542Z,2.77
2018-04-17T13:59:46.975Z,4.10
2018-04-17T14:02:14.422Z,2.10
2018-04-17T14:04:41.914Z,2.90
2018-04-17T14:07:09.362Z,2.80
2018-04-17T14:09:36.794Z,2.80
2018-04-17T14:12:04.238Z,2.70
2018-04-17T14:14:31.743Z,2.20
2018-04-17T14:16:59.191Z,2.50
2018-04-17T14:19:26.633Z,2.70
2018-04-17T14:21:54.114Z,2.47
2018-04-17T14:24:21.559Z,2.43
2018-04-17T14:26:49.005Z,2.33
2018-04-17T14:29:16.437Z,2.53
2018-04-17T14:31:44.661Z,1.97
2018-04-17T14:34:12.110Z,2.27
2018-04-17T14:36:39.554Z,2.10
2018-04-17T14:39:07.030Z,1.70
2018-04-17T14:41:34.482Z,2.07
2018-04-17T14:44:02.038Z,1.97
2018-04-17T14:46:29.484Z,2.40
2018-04-17T14:48:56.918Z,2.23
2018-04-17T14:51:24.415Z,2.03
2018-04-17T14:53:51.847Z,2.57
2018-04-17T14:56:19.301Z,3.50
2018-04-17T14:58:46.750Z,2.13
2018-04-17T15:01:14.178Z,2.47
2018-04-17T15:03:42.418Z,2.07
2018-04-17T15:06:10.074Z,2.63
2018-04-17T15:08:37.511Z,2.50
2018-04-17T15:11:04.938Z,2.17
2018-04-17T15:13:33.149Z,2.00
2018-04-17T15:16:00.593Z,3.20
2018-04-17T15:18:28.026Z,2.40
2018-04-17T15:20:56.226Z,2.03
2018-04-17T15:23:23.661Z,1.87
2018-04-17T15:25:51.163Z,2.50
2018-04-17T15:28:18.624Z,2.83
2018-04-17T15:30:46.058Z,2.70
2018-04-17T15:33:13.500Z,2.03
2018-04-17T15:35:41.010Z,2.00
2018-04-17T15:38:08.559Z,2.30
2018-04-17T15:40:36.007Z,2.73
2018-04-17T15:43:03.455Z,2.30
2018-04-17T15:45:30.896Z,1.97
2018-04-17T15:47:58.387Z,2.00
2018-04-17T15:50:25.834Z,2.17
2018-04-17T15:52:53.290Z,2.37
2018-04-17T15:55:20.741Z,3.40
2018-04-17T15:57:48.190Z,2.43
2018-04-17T16:00:15.870Z,3.53
2018-04-17T16:02:43.309Z,2.20
2018-04-17T16:05:10.781Z,2.47
2018-04-17T16:07:38.242Z,2.07
2018-04-17T16:10:05.694Z,2.40
2018-04-17T16:12:33.154Z,2.10
2018-04-17T16:15:00.609Z,2.30
2018-04-17T16:17:28.063Z,2.80
2018-04-17T16:19:55.514Z,2.07
2018-04-17T16:22:22.963Z,2.03
2018-04-17T16:24:50.439Z,2.50
2018-04-17T16:27:17.893Z,2.13
2018-04-17T16:29:45.951Z,2.23
2018-04-17T16:32:13.419Z,2.13
2018-04-17T16:34:41.657Z,3.33
2018-04-17T16:37:09.098Z,1.77
2018-04-17T16:39:37.325Z,2.90
2018-04-17T16:42:04.770Z,2.00
2018-04-17T16:44:32.205Z,2.47
2018-04-17T16:46:59.694Z,1.83
2018-04-17T16:49:27.154Z,2.40
2018-04-17T16:51:54.605Z,2.10
2018-04-17T16:54:22.078Z,1.90
2018-04-17T16:56:49.506Z,1.97
2018-04-17T16:59:16.959Z,3.67
2018-04-17T17:01:44.439Z,3.93
2018-04-17T17:04:12.351Z,2.97
2018-04-17T17:06:40.588Z,2.40
2018-04-17T17:09:08.042Z,2.43
2018-04-17T17:11:35.484Z,2.20
2018-04-17T17:14:02.931Z,1.70
2018-04-17T17:16:30.411Z,2.20
2018-04-17T17:18:58.148Z,2.23
2018-04-17T17:21:25.639Z,2.10
2018-04-17T17:23:53.084Z,1.90
2018-04-17T17:26:20.509Z,2.07
2018-04-17T17:28:47.954Z,2.60
2018-04-17T17:31:16.168Z,2.40
2018-04-17T17:33:43.611Z,2.47
2018-04-17T17:36:11.055Z,1.93
2018-04-17T17:38:38.493Z,2.60
2018-04-17T17:41:06.693Z,2.30
2018-04-17T17:43:34.128Z,1.83
2018-04-17T17:46:02.333Z,2.53
2018-04-17T17:48:29.783Z,2.50
2018-04-17T17:50:57.202Z,1.97
2018-04-17T17:53:25.411Z,2.47
2018-04-17T17:55:52.834Z,2.17
2018-04-17T17:58:21.038Z,2.80
2018-04-17T18:00:48.497Z,3.43
2018-04-17T18:03:15.990Z,2.67
2018-04-17T18:05:43.433Z,3.40
2018-04-17T18:08:11.014Z,2.47
2018-04-17T18:10:38.457Z,6.43
2018-04-17T18:13:05.906Z,3.83
2018-04-17T18:15:33.342Z,3.37
2018-04-17T18:18:00.805Z,2.83
2018-04-17T18:20:28.237Z,10.70
2018-04-17T18:22:55.674Z,3.57
2018-04-17T18:25:23.874Z,2.80
2018-04-17T18:27:51.314Z,2.57
2018-04-17T18:30:19.517Z,2.43
2018-04-17T18:32:46.954Z,2.43
2018-04-17T18:35:14.392Z,2.40
2018-04-17T18:37:42.699Z,2.60
2018-04-17T18:40:10.130Z,2.43
2018-04-17T18:42:38.362Z,2.47
2018-04-17T18:45:05.806Z,2.60
2018-04-17T18:47:33.277Z,2.13
2018-04-17T18:50:00.847Z,2.60
2018-04-17T18:52:28.396Z,3.80
2018-04-17T18:54:55.846Z,2.47
2018-04-17T18:57:23.386Z,2.80
2018-04-17T18:59:50.806Z,2.40
2018-04-17T19:02:19.042Z,2.33
2018-04-17T19:04:46.471Z,2.90
2018-04-17T19:07:13.915Z,3.10
2018-04-17T19:09:41.375Z,2.63
2018-04-17T19:12:08.979Z,2.50
2018-04-17T19:14:36.418Z,2.47
2018-04-17T19:17:03.890Z,2.37
2018-04-17T19:19:31.338Z,2.10
2018-04-17T19:21:58.802Z,2.60
2018-04-17T19:24:26.242Z,2.63
2018-04-17T19:26:53.699Z,2.40
2018-04-17T19:29:21.153Z,2.30
2018-04-17T19:31:48.579Z,2.40
2018-04-17T19:34:16.010Z,1.83
2018-04-17T19:36:43.446Z,2.23
2018-04-17T19:39:10.939Z,2.30
2018-04-17T19:41:39.143Z,3.10
2018-04-17T19:44:06.579Z,2.53
2018-04-17T19:46:34.026Z,2.80
2018-04-17T19:49:02.250Z,2.00
2018-04-17T19:51:29.683Z,2.57
2018-04-17T19:53:57.181Z,2.97
2018-04-17T19:56:24.616Z,2.87
2018-04-17T19:58:52.053Z,2.23
2018-04-17T20:01:19.508Z,2.47
2018-04-17T20:03:47.073Z,2.10
2018-04-17T20:06:14.503Z,2.57
2018-04-17T20:08:42.700Z,2.27
2018-04-17T20:11:10.133Z,1.93
2018-04-17T20:13:38.469Z,2.30
2018-04-17T20:16:05.898Z,2.00
2018-04-17T20:18:33.332Z,2.33
2018-04-17T20:21:00.831Z,2.20
2018-04-17T20:23:28.341Z,2.30
2018-04-17T20:25:56.534Z,2.57
2018-04-17T20:28:23.961Z,2.50
2018-04-17T20:30:52.181Z,2.10
2018-04-17T20:33:19.627Z,3.60
2018-04-17T20:35:47.070Z,10.53
2018-04-17T20:38:14.499Z,6.43
2018-04-17T20:40:41.935Z,2.63
2018-04-17T20:43:09.369Z,2.30
2018-04-17T20:45:36.827Z,2.17
2018-04-17T20:48:04.272Z,3.07
2018-04-17T20:50:31.714Z,2.17
2018-04-17T20:52:59.210Z,2.13
2018-04-17T20:55:26.646Z,2.27
2018-04-17T20:57:54.083Z,2.33
2018-04-17T21:00:21.593Z,2.27
2018-04-17T21:02:49.014Z,3.00
2018-04-17T21:05:16.486Z,3.43
2018-04-17T21:07:43.957Z,2.10
2018-04-17T21:10:11.402Z,2.20
2018-04-17T21:12:38.859Z,2.13
2018-04-17T21:15:06.321Z,2.90
2018-04-17T21:17:33.765Z,2.87
2018-04-17T21:20:01.231Z,2.60
2018-04-17T21:22:28.688Z,2.50
2018-04-17T21:24:56.123Z,2.90
2018-04-17T21:27:23.550Z,3.10
2018-04-17T21:29:51.774Z,2.67
2018-04-17T21:32:19.217Z,2.90
2018-04-17T21:34:46.686Z,8.27
2018-04-17T21:37:14.350Z,4.60
2018-04-17T21:39:41.793Z,7.37
2018-04-17T21:42:09.238Z,3.00
2018-04-17T21:44:36.675Z,2.60
2018-04-17T21:47:04.178Z,2.50
2018-04-17T21:49:31.636Z,2.37
2018-04-17T21:51:59.066Z,2.70
2018-04-17T21:54:26.546Z,2.50
2018-04-17T21:56:53.983Z,2.57
2018-04-17T21:59:21.436Z,2.33
2018-04-17T22:01:48.917Z,3.10
2018-04-17T22:04:16.375Z,2.53
2018-04-17T22:06:43.826Z,2.80
2018-04-17T22:09:11.264Z,2.70
2018-04-17T22:11:38.706Z,3.07
2018-04-17T22:14:06.147Z,2.70
2018-04-17T22:16:34.474Z,2.40
2018-04-17T22:19:02.758Z,2.60
2018-04-17T22:21:30.196Z,3.10
2018-04-17T22:23:58.059Z,2.77
2018-04-17T22:26:25.510Z,2.77
2018-04-17T22:28:52.951Z,2.77
2018-04-17T22:31:21.055Z,2.27
2018-04-17T22:33:48.498Z,2.40
2018-04-17T22:36:15.954Z,2.37
2018-04-17T22:38:43.385Z,2.80
2018-04-17T22:41:10.816Z,5.07
2018-04-17T22:43:38.258Z,3.03
2018-04-17T22:46:05.694Z,2.73
2018-04-17T22:48:33.131Z,2.53
2018-04-17T22:51:00.571Z,2.40
2018-04-17T22:53:28.006Z,2.60
2018-04-17T22:55:55.442Z,2.47
2018-04-17T22:58:22.894Z,2.33
2018-04-17T23:00:50.318Z,2.17
2018-04-17T23:03:17.762Z,2.70
2018-04-17T23:05:45.258Z,2.70
2018-04-17T23:08:12.817Z,2.17
2018-04-17T23:10:40.275Z,3.37
2018-04-17T23:13:07.717Z,2.47
2018-04-17T23:15:35.159Z,2.33
2018-04-17T23:18:02.643Z,2.17
2018-04-17T23:20:30.079Z,2.27
2018-04-17T23:22:58.171Z,2.27
2018-04-17T23:25:25.627Z,2.30
2018-04-17T23:27:53.095Z,2.30
2018-04-17T23:30:20.526Z,2.23
2018-04-17T23:32:48.000Z,2.10
2018-04-17T23:35:15.430Z,3.03
2018-04-17T23:37:42.868Z,2.00
2018-04-17T23:40:10.466Z,2.20
2018-04-17T23:42:37.902Z,3.20
2018-04-17T23:45:05.388Z,2.10
2018-04-17T23:47:33.350Z,2.50
2018-04-17T23:50:00.874Z,2.40
2018-04-17T23:52:28.438Z,2.40
2018-04-17T23:54:55.884Z,2.37
2018-04-17T23:57:23.396Z,2.20
2018-04-17T23:59:50.846Z,2.20
